TAPA

V. C. Bird International Airport

Airport
ICAO code
TAPA
IATA Code
ANU
Summary
ICAO Region
CARSAM
ICAO Territory
Location

St. John's, Antigua

Serving
St. John's
Elevation
62 ft
Coordinates
17° 8' 12" N , 61° 47' 34" W
KCC
Metar
TAPA 221700Z 27008KT 230V340 9999 VCSH SCT019 SCT036 29/21 Q1013 NOSIG

V.C. Bird International Airport is located on the island of Antigua, 8 km northeast of St. John's, the capital of Antigua and Barbuda.

Climatology

Tropical Monsoon climate (Köppen climate classification Am) - monthly mean temperatures above 18°C in every month of the year and features wet and dry seasons. A tropical monsoon climate typically features less pronounced dry seasons than a tropical savanna climate and see less variance in temperatures during the course of the year. The driest month nearly always occurs at or soon after the "winter" solstice.

Runways

Designator Length Width Surface Rops
7/25 2744 45 ASP Yes/Yes

Airport map

Aerial View

SKYbrary Partners:

Safety knowledge contributed by: